This is the latest recevied weather packets stored in our database for station/object AL7BX-WX. If no packets are shown the sender has not sent any weather packets the latest 10 day(s).
| Time | Temp. | Humidity | Pressure | Rain* | Wind** | Luminosity | Snow |
|---|---|---|---|---|---|---|---|
| 1778070013 | 8.33° C | 50% | 0 hPa | 0 mm | - | - | - |
| 1778066823 | 9.44° C | 52% | 0 hPa | 0 mm | - | - | - |
| 1778065203 | 8.89° C | 49% | 0 hPa | 0 mm | - | - | - |
| 1778064843 | 8.89° C | 49% | 0 hPa | 0 mm | - | - | - |
| 1778060834 | 7.22° C | 49% | 0 hPa | 0 mm | - | - | - |
| 1778056152 | 10° C | 44% | 0 hPa | 0 mm | - | - | - |
| 1778054043 | 11.11° C | 39% | 0 hPa | 0 mm | - | - | - |
| 1778051344 | 11.11° C | 40% | 0 hPa | 0 mm | - | - | - |
| 1778048283 | 12.22° C | 41% | 0 hPa | 0 mm | - | - | - |
| 1778045223 | 12.22° C | 42% | 0 hPa | 0 mm | - | - | - |
| 1778043603 | 12.22° C | 42% | 0 hPa | 0 mm | - | - | - |
| 1778042703 | 12.22° C | 43% | 0 hPa | 0 mm | - | - | - |
| 1778041083 | 12.78° C | 42% | 0 hPa | 0 mm | - | - | - |
| 1778039103 | 12.78° C | 40% | 0 hPa | 0 mm | - | - | - |
| 1778038023 | 12.78° C | 40% | 0 hPa | 0 mm | - | - | - |
| 1778036943 | 13.33° C | 39% | 0 hPa | 0 mm | - | - | - |
| 1778036174 | 13.33° C | 39% | 0 hPa | 0 mm | - | - | - |
| 1778035093 | 13.89° C | 38% | 0 hPa | 0 mm | - | - | - |
| 1778030954 | 16.11° C | 34% | 0 hPa | 0 mm | - | - | - |
| 1778029743 | 16.11° C | 32% | 0 hPa | 0 mm | - | - | - |
| 1778028303 | 16.11° C | 33% | 0 hPa | 0 mm | - | - | - |
| 1778019483 | 18.89° C | 28% | 0 hPa | 0 mm | - | - | - |
| 1778016424 | 18.33° C | 30% | 0 hPa | 0 mm | - | - | - |
| 1778015883 | 18.33° C | 30% | 0 hPa | 0 mm | - | - | - |
| 1778014443 | 18.33° C | 30% | 0 hPa | 0 mm | - | - | - |
* Rain latest hour (hover to see other rain measurements)
** Current wind speed in m/s (hover to see current wind gust speed)